Flight Track Log - Related Links

Times and Time Zones

All times are in EDT time to prevent confusion due to time zone crossing. See the N5CX flight status page for this flight to view local times or setup timezone preferences in your user account.

Time Position Orientation Groundspeed Altitude Reporting Facility
EDT Latitude Longitude Course Direction KTS MPH feet Rate Location/Type
Tue 08:22:16 AM 42.9014 -84.6236 332° Northwest 153 176 3,900  Level Chicago Center
Tue 08:23:18 AM 42.9403 -84.6508 333° Northwest 155 178 4,600 774 Climbing Chicago Center
Tue 08:24:00 AM 43.0029 -84.7690 330° Northwest  Level FlightAware Approximate
Tue 08:24:20 AM 42.9842 -84.6856 330° Northwest 154 177 5,500  Level Chicago Center
Tue 08:25:00 AM 43.0421 -84.8003 330° Northwest  Level FlightAware Approximate
Tue 08:25:22 AM 43.0206 -84.7197 326° Northwest 158 182 6,100  Level Chicago Center
Tue 08:26:00 AM 43.0814 -84.8317 330° Northwest  Level FlightAware Approximate
Tue 08:26:24 AM 43.0575 -84.7506 329° Northwest 157 181 6,900  Level Chicago Center
Tue 08:27:26 AM 43.0986 -84.7822 331° Northwest 165 190 7,000  Climbing Chicago Center
Tue 08:28:28 AM 43.1428 -84.8219 327° Northwest 184 212 6,900  Descending Chicago Center
Tue 08:29:30 AM 43.1872 -84.8564 331° Northwest 185 213 7,000 97 Climbing Chicago Center
Tue 08:30:32 AM 43.2378 -84.8986 329° Northwest 180 207 7,100  Climbing Chicago Center
Tue 08:31:35 AM 43.2819 -84.9342 330° Northwest 183 211 7,000  Descending Chicago Center
Tue 08:32:37 AM 43.3242 -84.9697 329° Northwest 182 209 7,100 48 Climbing Chicago Center
Tue 08:33:39 AM 43.3672 -85.0056 329° Northwest 182 209 7,100  Level Chicago Center
Tue 08:34:41 AM 43.4111 -85.0397 331° Northwest 183 211 7,100  Level Chicago Center
Tue 08:35:43 AM 43.4619 -85.0842 328° Northwest 181 208 7,100  Level Chicago Center
Tue 08:36:45 AM 43.5019 -85.1236 324° Northwest 179 206 7,100  Level Chicago Center
Tue 08:37:47 AM 43.5436 -85.1597 328° Northwest 177 204 7,100  Level Chicago Center
Tue 08:38:49 AM 43.5839 -85.1956 327° Northwest 175 201 7,100  Level Chicago Center
Tue 08:39:51 AM 43.6242 -85.2325 326° Northwest 175 201 7,100  Level Chicago Center
Tue 08:40:39 AM 43.6572 -85.2597 329° Northwest 175 201 7,100  Level Minneapolis Center
Tue 08:41:41 AM 43.6986 -85.2961 328° Northwest 175 201 7,100  Level Minneapolis Center
Tue 08:42:43 AM 43.7469 -85.3381 328° Northwest 174 200 7,100  Level Minneapolis Center
Tue 08:43:45 AM 43.7883 -85.3753 327° Northwest 176 203 7,100 -49 Level Minneapolis Center
Tue 08:44:46 AM 43.8292 -85.4117 327° Northwest 176 203 7,000 -49 Descending Minneapolis Center
Tue 08:45:48 AM 43.8731 -85.4442 332° Northwest 178 205 7,000  Level Minneapolis Center
Tue 08:46:50 AM 43.9147 -85.4803 328° Northwest 177 204 7,000  Level Minneapolis Center
Tue 08:47:52 AM 43.9569 -85.5169 328° Northwest 179 206 7,000  Level Minneapolis Center
Tue 08:48:53 AM 44.0092 -85.5603 329° Northwest 181 208 7,000  Level Minneapolis Center
Tue 08:49:55 AM 44.0503 -85.5964 328° Northwest 178 205 7,000  Level Minneapolis Center
Tue 08:50:57 AM 44.0889 -85.6314 327° Northwest 177 204 7,000  Level Minneapolis Center
Tue 08:51:58 AM 44.1319 -85.6667 330° Northwest 178 205 7,000  Level Minneapolis Center
Tue 08:53:00 AM 44.1739 -85.7053 327° Northwest 180 207 7,000  Level Minneapolis Center
Tue 08:54:02 AM 44.2242 -85.7506 327° Northwest 179 206 7,000  Level Minneapolis Center
Tue 08:55:04 AM 44.2667 -85.7878 328° Northwest 181 208 7,000  Level Minneapolis Center
Tue 08:56:05 AM 44.3092 -85.8242 329° Northwest 179 206 7,000  Level Minneapolis Center
Tue 08:57:07 AM 44.3436 -85.8525 330° Northwest 180 207 7,000  Level Minneapolis Center
Tue 08:58:09 AM 44.3942 -85.8967 328° Northwest 178 205 7,000  Level Minneapolis Center
Tue 08:59:10 AM 44.4372 -85.9319 330° Northwest 179 206 7,000  Level Minneapolis Center
Tue 09:00:12 AM 44.4792 -85.9678 329° Northwest 178 205 7,000  Level Minneapolis Center
Tue 09:01:13 AM 44.5297 -86.0136 327° Northwest 179 206 7,000  Level Minneapolis Center
Tue 09:02:15 AM 44.5731 -86.0497 329° Northwest 180 207 7,000  Level Minneapolis Center
Tue 09:03:17 AM 44.6161 -86.0869 328° Northwest 181 208 7,000  Level Minneapolis Center
Tue 09:04:18 AM 44.6583 -86.1250 327° Northwest 179 206 7,000  Level Minneapolis Center
Tue 09:05:20 AM 44.7017 -86.1631 328° Northwest 181 208 7,000  Level Minneapolis Center
Tue 09:06:22 AM 44.7461 -86.2011 329° Northwest 183 211 7,000  Level Minneapolis Center
Tue 09:07:23 AM 44.7892 -86.2403 327° Northwest 183 211 7,000  Level Minneapolis Center
Tue 09:08:25 AM 44.8325 -86.2786 328° Northwest 183 211 7,000  Level Minneapolis Center
Tue 09:09:27 AM 44.8758 -86.3175 328° Northwest 183 211 7,000  Level Minneapolis Center
Tue 09:10:28 AM 44.9183 -86.3561 327° Northwest 183 211 7,000  Level Minneapolis Center
Tue 09:11:30 AM 44.9703 -86.4017 328° Northwest 183 211 7,000 -145 Level Minneapolis Center
Tue 09:12:32 AM 45.0139 -86.4400 328° Northwest 186 214 6,700 -439 Descending Minneapolis Center
Tue 09:13:33 AM 45.0583 -86.4836 325° Northwest 193 222 6,100 -341 Descending Minneapolis Center
Tue 09:14:35 AM 45.1025 -86.5222 328° Northwest 187 215 6,000 -48 Descending Minneapolis Center
Tue 09:15:37 AM 45.1464 -86.5564 331° Northwest 180 207 6,000  Level Minneapolis Center
Tue 09:16:38 AM 45.1933 -86.5786 342° North 178 205 6,000  Level Minneapolis Center
Tue 09:17:40 AM 45.2383 -86.6067 336° Northwest 178 205 6,000 -49 Level Minneapolis Center
Tue 09:18:41 AM 45.2814 -86.6397 332° Northwest 177 204 5,900 -341 Descending Minneapolis Center
Tue 09:19:43 AM 45.3372 -86.6814 332° Northwest 182 209 5,300 -581 Descending Minneapolis Center
Tue 09:20:45 AM 45.3864 -86.7189 332° Northwest 191 220 4,700 -537 Descending Minneapolis Center
Tue 09:21:46 AM 45.4383 -86.7578 332° Northwest 195 224 4,200 -585 Descending Minneapolis Center
Tue 09:22:48 AM 45.4842 -86.7889 335° Northwest 196 226 3,500 -581 Descending Minneapolis Center
Tue 09:23:50 AM 45.5294 -86.8206 334° Northwest 190 219 3,000 -488 Descending Minneapolis Center
Tue 09:24:51 AM 45.5789 -86.8372 347° North 186 214 2,500 -244 Descending Minneapolis Center
Tue 09:25:53 AM 45.6289 -86.8333 North 182 209 2,500  Level Minneapolis Center
Tue 09:26:54 AM 45.6858 -86.8322 North 176 203 2,500 -98 Level Minneapolis Center
Tue 09:27:56 AM 45.7072 -86.8825 301° West 180 207 2,300 -194 Descending Minneapolis Center
Tue 09:28:58 AM 45.7200 -86.9289 292° West 151 174 2,100 -178 Descending Minneapolis Center
Tue 09:30:11 AM 45.7197 -86.9883 270° West 131 151 1,900 -178 Descending Minneapolis Center
Tue 09:31:13 AM 45.7197 -87.0342 270° West 128 147 1,700 -194 Descending Minneapolis Center

Login

Don't have an account? Register now (free) for customized features, flight alerts, and more!